createdAt,value
2023-04-11T00:00:54.922Z,35.60
2023-04-11T00:03:22.606Z,35.50
2023-04-11T00:05:49.997Z,35.60
2023-04-11T00:08:16.868Z,35.60
2023-04-11T00:10:45.462Z,35.50
2023-04-11T00:13:12.887Z,35.50
2023-04-11T00:15:40.016Z,35.50
2023-04-11T00:18:07.473Z,35.50
2023-04-11T00:20:34.560Z,35.30
2023-04-11T00:23:01.699Z,35.40
2023-04-11T00:25:30.254Z,35.60
2023-04-11T00:27:57.440Z,35.70
2023-04-11T00:30:24.424Z,35.70
2023-04-11T00:32:51.479Z,35.70
2023-04-11T00:35:18.373Z,35.70
2023-04-11T00:37:45.633Z,35.60
2023-04-11T00:40:16.107Z,35.40
2023-04-11T00:42:43.053Z,35.40
2023-04-11T00:45:10.383Z,35.30
2023-04-11T00:47:37.325Z,35.20
2023-04-11T00:50:04.537Z,35.10
2023-04-11T00:52:31.606Z,35.10
2023-04-11T00:54:58.830Z,35.10
2023-04-11T00:57:26.128Z,35.10
2023-04-11T00:59:53.274Z,35.10
2023-04-11T01:02:20.445Z,35.30
2023-04-11T01:04:47.592Z,35.20
2023-04-11T01:07:15.590Z,35.40
2023-04-11T01:09:42.913Z,35.60
2023-04-11T01:12:11.757Z,35.70
2023-04-11T01:14:39.833Z,35.80
2023-04-11T01:17:08.082Z,35.80
2023-04-11T01:19:35.129Z,35.90
2023-04-11T01:22:02.672Z,37.10
2023-04-11T01:24:29.824Z,36.90
2023-04-11T01:26:57.317Z,36.60
2023-04-11T01:29:24.228Z,36.40
2023-04-11T01:31:51.976Z,36.40
2023-04-11T01:34:20.007Z,36.60
2023-04-11T01:36:47.749Z,36.80
2023-04-11T01:39:14.953Z,36.70
2023-04-11T01:41:43.143Z,36.70
2023-04-11T01:44:10.321Z,36.50
2023-04-11T01:46:37.372Z,36.50
2023-04-11T01:49:04.632Z,36.30
2023-04-11T01:51:31.621Z,36.20
2023-04-11T01:53:58.578Z,36.00
2023-04-11T01:56:25.685Z,36.00
2023-04-11T01:58:52.573Z,36.00
2023-04-11T02:01:20.680Z,36.20
2023-04-11T02:03:47.774Z,36.40
2023-04-11T02:06:15.894Z,36.50
2023-04-11T02:08:43.926Z,36.80
2023-04-11T02:11:11.037Z,36.90
2023-04-11T02:13:38.017Z,36.90
2023-04-11T02:16:07.198Z,36.90
2023-04-11T02:18:34.172Z,36.80
2023-04-11T02:21:01.096Z,37.10
2023-04-11T02:23:28.141Z,37.10
2023-04-11T02:25:55.365Z,37.20
2023-04-11T02:28:22.634Z,37.30
2023-04-11T02:30:50.305Z,37.50
2023-04-11T02:33:17.198Z,37.80
2023-04-11T02:35:44.162Z,38.00
2023-04-11T02:38:11.118Z,38.30
2023-04-11T02:40:38.003Z,38.70
2023-04-11T02:43:05.112Z,38.70
2023-04-11T02:45:32.266Z,38.80
2023-04-11T02:47:59.276Z,39.00
2023-04-11T02:50:29.029Z,39.10
2023-04-11T02:52:55.894Z,39.30
2023-04-11T02:55:23.335Z,39.40
2023-04-11T02:57:50.744Z,39.60
2023-04-11T03:00:20.485Z,39.60
2023-04-11T03:02:47.439Z,39.60
2023-04-11T03:05:15.834Z,39.80
2023-04-11T03:07:43.803Z,39.80
2023-04-11T03:10:10.945Z,40.00
2023-04-11T03:12:37.865Z,40.00
2023-04-11T03:15:05.159Z,40.10
2023-04-11T03:17:32.092Z,40.00
2023-04-11T03:19:58.932Z,39.90
2023-04-11T03:22:26.106Z,39.70
2023-04-11T03:24:53.036Z,39.60
2023-04-11T03:27:19.878Z,39.50
2023-04-11T03:29:46.786Z,39.50
2023-04-11T03:32:13.706Z,39.60
2023-04-11T03:34:40.939Z,39.80
2023-04-11T03:37:07.906Z,40.00
2023-04-11T03:39:34.772Z,40.20
2023-04-11T03:42:02.298Z,40.70
2023-04-11T03:44:29.166Z,41.30
2023-04-11T03:46:56.115Z,41.00
2023-04-11T03:49:23.025Z,40.60
2023-04-11T03:51:50.093Z,40.40
2023-04-11T03:54:16.948Z,40.40
2023-04-11T03:56:43.803Z,40.20
2023-04-11T03:59:10.705Z,40.30
2023-04-11T04:01:38.294Z,40.40
2023-04-11T04:04:05.974Z,40.80
2023-04-11T04:06:33.074Z,41.30
2023-04-11T04:09:00.027Z,41.50
2023-04-11T04:11:26.982Z,41.60
2023-04-11T04:13:54.225Z,41.70
2023-04-11T04:16:21.350Z,41.70
2023-04-11T04:18:48.390Z,41.70
2023-04-11T04:21:15.875Z,41.60
2023-04-11T04:23:47.657Z,41.60
2023-04-11T04:26:16.331Z,41.60
2023-04-11T04:28:46.386Z,41.60
2023-04-11T04:31:15.280Z,41.70
2023-04-11T04:33:46.671Z,41.60
2023-04-11T04:36:13.634Z,41.70
2023-04-11T04:38:42.335Z,41.70
2023-04-11T04:41:15.693Z,41.70
2023-04-11T04:43:42.732Z,41.60
2023-04-11T04:46:11.155Z,41.60
2023-04-11T04:48:38.156Z,41.70
2023-04-11T04:51:07.105Z,41.90
2023-04-11T04:53:34.973Z,41.90
2023-04-11T04:56:02.583Z,41.90
2023-04-11T04:58:29.526Z,41.80
2023-04-11T05:00:56.573Z,41.80
2023-04-11T05:03:23.807Z,41.80
2023-04-11T05:05:51.009Z,41.90
2023-04-11T05:08:20.826Z,42.00
2023-04-11T05:10:47.811Z,42.00
2023-04-11T05:13:14.747Z,42.20
2023-04-11T05:15:48.324Z,42.30
2023-04-11T05:18:15.762Z,42.40
2023-04-11T05:20:42.647Z,42.30
2023-04-11T05:23:09.513Z,42.50
2023-04-11T05:25:36.394Z,42.50
2023-04-11T05:28:03.325Z,42.60
2023-04-11T05:30:30.368Z,42.60
2023-04-11T05:32:57.301Z,42.60
2023-04-11T05:35:24.308Z,42.60
2023-04-11T05:37:51.540Z,42.50
2023-04-11T05:40:18.462Z,42.40
2023-04-11T05:42:46.118Z,42.40
2023-04-11T05:45:13.026Z,42.40
2023-04-11T05:47:39.936Z,42.70
2023-04-11T05:50:07.378Z,42.70
2023-04-11T05:52:34.268Z,43.50
2023-04-11T05:55:01.489Z,43.00
2023-04-11T05:57:28.418Z,42.90
2023-04-11T05:59:55.388Z,43.00
2023-04-11T06:02:22.315Z,43.10
2023-04-11T06:04:49.329Z,43.30
2023-04-11T06:07:16.473Z,43.30
2023-04-11T06:09:44.318Z,43.40
2023-04-11T06:12:11.308Z,43.60
2023-04-11T06:14:40.576Z,43.60
2023-04-11T06:17:07.697Z,43.80
2023-04-11T06:19:34.580Z,43.90
2023-04-11T06:22:01.715Z,44.00
2023-04-11T06:24:39.165Z,44.00
2023-04-11T06:27:09.364Z,44.00
2023-04-11T06:29:39.749Z,43.80
2023-04-11T06:32:07.824Z,43.00
2023-04-11T06:34:35.233Z,42.90
2023-04-11T06:37:02.111Z,42.70
2023-04-11T06:39:28.996Z,42.60
2023-04-11T06:41:56.607Z,42.30
2023-04-11T06:44:23.556Z,42.50
2023-04-11T06:46:50.557Z,42.30
2023-04-11T06:49:18.857Z,42.20
2023-04-11T06:51:52.026Z,42.00
2023-04-11T06:54:19.237Z,41.80
2023-04-11T06:56:46.455Z,41.80
2023-04-11T06:59:13.761Z,41.70
2023-04-11T07:01:40.931Z,41.40
2023-04-11T07:04:08.350Z,41.60
2023-04-11T07:06:38.539Z,41.50
2023-04-11T07:09:05.788Z,41.60
2023-04-11T07:11:33.614Z,41.70
2023-04-11T07:14:01.347Z,41.80
2023-04-11T07:16:28.697Z,42.30
2023-04-11T07:18:56.079Z,41.40
2023-04-11T07:21:23.254Z,41.30
2023-04-11T07:23:50.184Z,41.20
2023-04-11T07:26:18.035Z,41.10
2023-04-11T07:28:45.255Z,41.20
2023-04-11T07:31:13.936Z,41.30
2023-04-11T07:33:44.077Z,41.30
2023-04-11T07:36:11.664Z,41.40
2023-04-11T07:38:38.615Z,41.50
2023-04-11T07:41:05.974Z,41.60
2023-04-11T07:43:33.734Z,41.90
2023-04-11T07:46:00.888Z,42.10
2023-04-11T07:48:28.376Z,42.00
2023-04-11T07:50:55.485Z,41.90
2023-04-11T07:53:22.934Z,42.00
2023-04-11T07:55:50.041Z,42.10
2023-04-11T07:58:17.070Z,42.20
2023-04-11T08:00:43.979Z,42.20
2023-04-11T08:03:13.358Z,42.30
2023-04-11T08:05:40.642Z,42.50
2023-04-11T08:08:07.768Z,42.70
2023-04-11T08:10:34.665Z,42.50
2023-04-11T08:13:01.843Z,42.90
2023-04-11T08:15:28.749Z,42.90
2023-04-11T08:17:56.606Z,43.70
2023-04-11T08:20:24.650Z,43.70
2023-04-11T08:22:51.781Z,44.30
2023-04-11T08:25:25.319Z,44.80
2023-04-11T08:27:52.735Z,45.00
2023-04-11T08:30:21.422Z,45.70
2023-04-11T08:32:48.396Z,46.50
2023-04-11T08:35:15.452Z,47.20
2023-04-11T08:37:44.439Z,47.70
2023-04-11T08:40:11.973Z,47.70
2023-04-11T08:42:38.882Z,46.80
2023-04-11T08:45:08.807Z,46.00
2023-04-11T08:47:37.636Z,45.10
2023-04-11T08:50:08.893Z,45.00
2023-04-11T08:52:37.971Z,44.20
2023-04-11T08:55:05.203Z,44.30
2023-04-11T08:57:33.051Z,44.10
2023-04-11T09:00:09.233Z,44.20
2023-04-11T09:02:36.407Z,44.40
2023-04-11T09:05:03.421Z,44.40
2023-04-11T09:07:47.710Z,44.90
2023-04-11T09:10:21.457Z,45.10
2023-04-11T09:12:48.281Z,45.30
2023-04-11T09:15:19.117Z,44.40
2023-04-11T09:17:46.331Z,45.80
2023-04-11T09:20:31.441Z,45.80
2023-04-11T09:22:59.142Z,45.80
2023-04-11T09:25:26.145Z,46.30
2023-04-11T09:28:09.167Z,46.10
2023-04-11T09:30:36.594Z,46.20
2023-04-11T09:33:22.511Z,46.50
2023-04-11T09:35:52.017Z,45.70
2023-04-11T09:38:48.555Z,46.50
2023-04-11T09:41:15.740Z,46.50
2023-04-11T09:43:55.829Z,47.20
2023-04-11T09:46:23.206Z,46.60
2023-04-11T09:48:51.764Z,47.00
2023-04-11T09:51:31.922Z,46.80
2023-04-11T09:54:02.316Z,46.90
2023-04-11T09:56:30.466Z,46.90
2023-04-11T09:58:59.941Z,46.80
2023-04-11T10:01:27.432Z,46.60
2023-04-11T10:03:56.716Z,46.70
2023-04-11T10:06:57.693Z,46.50
2023-04-11T10:09:24.612Z,46.40
2023-04-11T10:11:51.766Z,46.50
2023-04-11T10:14:37.007Z,46.40
2023-04-11T10:17:20.582Z,46.10
2023-04-11T10:19:50.701Z,46.20
2023-04-11T10:22:43.921Z,46.60
2023-04-11T10:25:19.266Z,46.30
2023-04-11T10:27:48.130Z,46.40
2023-04-11T10:30:15.450Z,46.30
2023-04-11T10:33:13.346Z,45.90
2023-04-11T10:36:06.744Z,45.60
2023-04-11T10:38:48.639Z,45.50
2023-04-11T10:41:33.756Z,45.20
2023-04-11T10:44:32.787Z,45.00
2023-04-11T10:46:59.704Z,44.80
2023-04-11T10:49:36.777Z,45.20
2023-04-11T10:52:21.217Z,45.00
2023-04-11T10:54:52.243Z,45.40
2023-04-11T10:57:21.250Z,44.90
2023-04-11T10:59:51.449Z,44.40
2023-04-11T11:02:22.042Z,45.10
2023-04-11T11:04:49.437Z,45.20
2023-04-11T11:07:17.556Z,45.70
2023-04-11T11:09:51.412Z,45.90
2023-04-11T11:12:18.546Z,45.80
2023-04-11T11:14:47.413Z,45.40
2023-04-11T11:17:16.168Z,45.20
2023-04-11T11:19:47.460Z,45.50
2023-04-11T11:22:26.614Z,45.00
2023-04-11T11:24:53.635Z,44.50
2023-04-11T11:27:22.745Z,44.20
2023-04-11T11:29:50.413Z,44.80
2023-04-11T11:32:28.123Z,44.10
2023-04-11T11:34:55.563Z,42.30
2023-04-11T11:37:23.314Z,41.40
2023-04-11T11:39:50.898Z,41.90
2023-04-11T11:42:18.413Z,41.60
2023-04-11T11:44:45.487Z,40.00
2023-04-11T11:47:15.479Z,40.20
2023-04-11T11:49:52.969Z,40.10
2023-04-11T11:52:36.603Z,40.60
2023-04-11T11:55:08.083Z,40.40
2023-04-11T11:57:59.741Z,39.40
2023-04-11T12:00:28.328Z,39.20
2023-04-11T12:02:56.812Z,38.50
2023-04-11T12:05:30.910Z,37.10
2023-04-11T12:08:00.042Z,36.90
2023-04-11T12:10:39.763Z,36.80
2023-04-11T12:13:22.530Z,37.30
2023-04-11T12:15:57.753Z,37.70
2023-04-11T12:18:26.396Z,38.20
2023-04-11T12:20:53.849Z,39.00
2023-04-11T12:23:21.701Z,39.00
2023-04-11T12:25:48.790Z,40.10
2023-04-11T12:28:16.164Z,40.60
2023-04-11T12:30:43.102Z,40.80
2023-04-11T12:33:09.986Z,40.60
2023-04-11T12:35:37.069Z,41.10
2023-04-11T12:38:04.383Z,41.80
2023-04-11T12:40:31.417Z,41.90
2023-04-11T12:42:58.280Z,42.50
2023-04-11T12:45:26.004Z,42.80
2023-04-11T12:47:53.366Z,43.30
2023-04-11T12:50:23.008Z,43.60
2023-04-11T12:52:49.949Z,44.00
2023-04-11T12:55:16.878Z,44.30
2023-04-11T12:57:43.906Z,43.70
2023-04-11T13:00:12.902Z,43.40
2023-04-11T13:02:43.905Z,43.80
2023-04-11T13:05:15.670Z,44.20
2023-04-11T13:07:44.986Z,44.30
2023-04-11T13:10:14.097Z,44.40
2023-04-11T13:12:44.360Z,44.10
2023-04-11T13:15:12.975Z,44.20
2023-04-11T13:17:40.286Z,44.40
2023-04-11T13:20:10.161Z,44.10
2023-04-11T13:22:38.471Z,44.70
2023-04-11T13:25:06.042Z,44.00
2023-04-11T13:27:33.491Z,44.10
2023-04-11T13:30:00.480Z,44.20
2023-04-11T13:32:27.816Z,43.50
2023-04-11T13:34:54.805Z,43.30
2023-04-11T13:37:22.192Z,43.80
2023-04-11T13:39:49.138Z,43.60
2023-04-11T13:42:16.099Z,42.40
2023-04-11T13:44:42.999Z,42.10
2023-04-11T13:47:09.912Z,41.50
2023-04-11T13:49:36.830Z,41.70
2023-04-11T13:52:03.735Z,41.70
2023-04-11T13:54:30.649Z,42.30
2023-04-11T13:56:59.285Z,41.90
2023-04-11T13:59:27.619Z,41.90
2023-04-11T14:01:54.762Z,41.20
2023-04-11T14:04:22.004Z,41.20
2023-04-11T14:06:48.931Z,41.40
2023-04-11T14:09:16.073Z,41.40
2023-04-11T14:11:44.256Z,42.00
2023-04-11T14:14:11.183Z,42.40
2023-04-11T14:16:38.166Z,42.70
2023-04-11T14:19:05.142Z,43.20
2023-04-11T14:21:32.500Z,43.60
2023-04-11T14:23:59.747Z,44.10
2023-04-11T14:26:26.854Z,44.50
2023-04-11T14:28:53.895Z,44.50
2023-04-11T14:31:20.931Z,44.80
2023-04-11T14:33:48.158Z,45.00
2023-04-11T14:36:17.941Z,45.10
2023-04-11T14:38:44.844Z,45.30
2023-04-11T14:41:11.711Z,45.40
2023-04-11T14:43:38.547Z,45.50
2023-04-11T14:46:05.833Z,45.30
2023-04-11T14:48:32.802Z,45.40
2023-04-11T14:51:03.210Z,45.50
2023-04-11T14:53:30.528Z,46.10
2023-04-11T14:55:57.437Z,46.00
2023-04-11T14:58:24.606Z,46.10
2023-04-11T15:00:51.808Z,46.20
2023-04-11T15:03:18.830Z,46.10
2023-04-11T15:05:45.919Z,46.60
2023-04-11T15:08:12.851Z,46.50
2023-04-11T15:10:39.858Z,46.60
2023-04-11T15:13:08.980Z,46.40
2023-04-11T15:15:36.402Z,46.50
2023-04-11T15:18:28.084Z,46.70
2023-04-11T15:21:00.059Z,46.60
2023-04-11T15:23:27.232Z,46.90
2023-04-11T15:25:54.964Z,46.90
2023-04-11T15:28:23.020Z,47.10
2023-04-11T15:30:52.678Z,47.30
2023-04-11T15:33:21.110Z,47.20
2023-04-11T15:35:50.882Z,47.10
2023-04-11T15:38:17.804Z,47.20
2023-04-11T15:40:45.056Z,47.30
2023-04-11T15:43:12.069Z,47.20
2023-04-11T15:45:44.458Z,47.70
2023-04-11T15:48:13.291Z,47.40
2023-04-11T15:50:42.311Z,47.40
2023-04-11T15:53:09.893Z,47.70
2023-04-11T15:55:43.845Z,47.50
2023-04-11T15:58:11.032Z,47.10
2023-04-11T16:00:40.060Z,47.30
2023-04-11T16:03:08.562Z,47.30
2023-04-11T16:05:40.981Z,47.30
2023-04-11T16:08:08.288Z,47.50
2023-04-11T16:10:35.426Z,47.10
2023-04-11T16:13:03.193Z,47.50
2023-04-11T16:15:30.141Z,47.40
2023-04-11T16:17:57.067Z,47.40
2023-04-11T16:20:24.420Z,47.60
2023-04-11T16:22:51.360Z,47.70
2023-04-11T16:25:21.173Z,47.80
2023-04-11T16:27:48.608Z,47.80
2023-04-11T16:30:16.667Z,47.80
2023-04-11T16:32:43.848Z,48.00
2023-04-11T16:35:11.354Z,47.80
2023-04-11T16:37:38.374Z,48.10
2023-04-11T16:40:12.339Z,48.10
2023-04-11T16:42:39.861Z,48.40
2023-04-11T16:45:09.938Z,48.20
2023-04-11T16:47:37.428Z,48.20
2023-04-11T16:50:05.876Z,48.30
2023-04-11T16:52:33.014Z,48.70
2023-04-11T16:54:59.933Z,47.70
2023-04-11T16:57:27.606Z,47.40
2023-04-11T16:59:54.661Z,47.40
2023-04-11T17:02:21.677Z,47.50
2023-04-11T17:04:48.721Z,47.40
2023-04-11T17:07:16.276Z,47.40
2023-04-11T17:09:43.269Z,47.40
2023-04-11T17:12:10.576Z,47.80
2023-04-11T17:14:37.550Z,47.70
2023-04-11T17:17:04.501Z,48.10
2023-04-11T17:19:31.731Z,47.90
2023-04-11T17:21:58.689Z,48.10
2023-04-11T17:24:25.806Z,48.20
2023-04-11T17:26:53.189Z,48.20
2023-04-11T17:29:20.482Z,48.30
2023-04-11T17:31:47.416Z,48.40
2023-04-11T17:34:14.264Z,48.10
2023-04-11T17:36:42.938Z,48.30
2023-04-11T17:39:17.891Z,48.50
2023-04-11T17:41:45.747Z,48.30
2023-04-11T17:44:13.161Z,48.30
2023-04-11T17:46:40.174Z,48.70
2023-04-11T17:49:07.022Z,48.70
2023-04-11T17:51:33.879Z,48.60
2023-04-11T17:54:00.890Z,48.60
2023-04-11T17:56:27.776Z,48.40
2023-04-11T17:58:56.253Z,48.40
2023-04-11T18:01:24.763Z,48.70
2023-04-11T18:03:51.765Z,48.70
2023-04-11T18:06:19.287Z,48.70
2023-04-11T18:08:51.159Z,48.90
2023-04-11T18:11:19.551Z,49.00
2023-04-11T18:13:49.870Z,49.00
2023-04-11T18:16:17.452Z,49.10
2023-04-11T18:18:44.361Z,48.80
2023-04-11T18:21:11.221Z,48.90
2023-04-11T18:23:38.876Z,49.70
2023-04-11T18:26:05.926Z,49.10
2023-04-11T18:28:32.894Z,49.10
2023-04-11T18:30:59.792Z,49.00
2023-04-11T18:33:26.957Z,49.10
2023-04-11T18:35:53.888Z,49.10
2023-04-11T18:38:21.288Z,49.20
2023-04-11T18:40:48.789Z,49.50
2023-04-11T18:43:15.940Z,49.30
2023-04-11T18:45:43.435Z,49.20
2023-04-11T18:48:11.715Z,49.30
2023-04-11T18:50:42.811Z,49.50
2023-04-11T18:53:13.595Z,49.70
2023-04-11T18:55:41.323Z,49.60
2023-04-11T18:58:09.802Z,49.30
2023-04-11T19:00:39.157Z,49.90
2023-04-11T19:03:07.115Z,49.70
2023-04-11T19:05:34.738Z,49.60
2023-04-11T19:08:01.976Z,49.10
2023-04-11T19:10:28.904Z,49.30
2023-04-11T19:12:56.054Z,49.30
2023-04-11T19:15:23.250Z,49.00
2023-04-11T19:17:50.598Z,49.00
2023-04-11T19:20:19.185Z,49.00
2023-04-11T19:22:46.613Z,48.80
2023-04-11T19:25:14.168Z,49.10
2023-04-11T19:27:42.605Z,49.50
2023-04-11T19:30:11.423Z,49.30
2023-04-11T19:32:40.986Z,49.30
2023-04-11T19:35:10.576Z,49.60
2023-04-11T19:37:38.146Z,49.20
2023-04-11T19:40:15.464Z,48.90
2023-04-11T19:42:43.171Z,48.90
2023-04-11T19:45:11.222Z,48.80
2023-04-11T19:47:39.851Z,48.70
2023-04-11T19:50:13.308Z,48.60
2023-04-11T19:52:41.706Z,48.50
2023-04-11T19:55:09.494Z,48.80
2023-04-11T19:57:38.952Z,48.60
2023-04-11T20:00:14.353Z,48.80
2023-04-11T20:02:46.772Z,49.00
2023-04-11T20:05:16.089Z,48.80
2023-04-11T20:07:44.038Z,48.70
2023-04-11T20:10:15.324Z,48.70
2023-04-11T20:12:42.403Z,48.70
2023-04-11T20:15:09.973Z,48.60
2023-04-11T20:17:36.958Z,48.40
2023-04-11T20:20:07.988Z,48.40
2023-04-11T20:22:38.166Z,48.30
2023-04-11T20:25:07.606Z,48.40
2023-04-11T20:27:34.549Z,48.60
2023-04-11T20:30:01.955Z,48.60
2023-04-11T20:32:28.918Z,48.70
2023-04-11T20:34:56.444Z,48.70
2023-04-11T20:37:23.358Z,48.70
2023-04-11T20:39:51.680Z,48.60
2023-04-11T20:42:20.549Z,48.50
2023-04-11T20:44:47.483Z,48.50
2023-04-11T20:47:14.445Z,48.60
2023-04-11T20:49:41.639Z,48.60
2023-04-11T20:52:08.877Z,48.60
2023-04-11T20:54:35.896Z,48.70
2023-04-11T20:57:02.744Z,48.90
2023-04-11T20:59:30.137Z,48.90
2023-04-11T21:01:57.174Z,49.00
2023-04-11T21:04:24.245Z,49.20
2023-04-11T21:06:51.279Z,49.40
2023-04-11T21:09:18.653Z,49.40
2023-04-11T21:11:45.736Z,49.40
2023-04-11T21:14:12.613Z,49.30
2023-04-11T21:16:39.943Z,49.30
2023-04-11T21:19:06.872Z,49.30
2023-04-11T21:21:34.189Z,49.30
2023-04-11T21:24:01.982Z,49.20
2023-04-11T21:26:28.878Z,49.00
2023-04-11T21:28:56.076Z,48.90
2023-04-11T21:31:23.010Z,48.60
2023-04-11T21:33:49.861Z,48.60
2023-04-11T21:36:16.820Z,48.60
2023-04-11T21:38:43.724Z,48.50
2023-04-11T21:41:10.718Z,48.40
2023-04-11T21:43:37.545Z,48.30
2023-04-11T21:46:04.598Z,48.20
2023-04-11T21:48:31.502Z,48.10
2023-04-11T21:50:58.356Z,47.90
2023-04-11T21:53:25.292Z,47.60
2023-04-11T21:55:52.118Z,47.70
2023-04-11T21:58:29.176Z,47.70
2023-04-11T22:00:56.963Z,47.70
2023-04-11T22:03:24.139Z,47.80
2023-04-11T22:05:52.541Z,47.80
2023-04-11T22:08:20.147Z,47.80
2023-04-11T22:10:48.274Z,47.90
2023-04-11T22:13:17.529Z,47.90
2023-04-11T22:15:45.950Z,48.10
2023-04-11T22:18:13.204Z,48.20
2023-04-11T22:20:44.259Z,48.20
2023-04-11T22:23:13.299Z,48.30
2023-04-11T22:25:43.819Z,48.30
2023-04-11T22:28:24.273Z,48.30
2023-04-11T22:30:51.189Z,48.30
2023-04-11T22:33:18.310Z,48.40
2023-04-11T22:35:47.682Z,48.50
2023-04-11T22:38:17.674Z,48.60
2023-04-11T22:40:44.618Z,48.60
2023-04-11T22:43:11.753Z,48.60
2023-04-11T22:45:38.616Z,48.60
2023-04-11T22:48:06.274Z,48.60
2023-04-11T22:50:34.331Z,48.60
2023-04-11T22:53:04.261Z,48.70
2023-04-11T22:55:35.313Z,48.70
2023-04-11T22:58:04.896Z,48.70
2023-04-11T23:00:38.523Z,48.70
2023-04-11T23:03:07.562Z,48.70
2023-04-11T23:05:37.101Z,48.70
2023-04-11T23:08:04.009Z,48.50
2023-04-11T23:10:31.348Z,48.40
2023-04-11T23:12:58.303Z,48.40
2023-04-11T23:15:25.557Z,48.50
2023-04-11T23:17:52.525Z,48.60
2023-04-11T23:20:22.223Z,48.60
2023-04-11T23:22:49.138Z,49.00
2023-04-11T23:25:16.015Z,49.40
2023-04-11T23:27:44.597Z,49.50
2023-04-11T23:30:12.325Z,49.80
2023-04-11T23:32:40.010Z,49.90
2023-04-11T23:35:07.908Z,50.00
2023-04-11T23:37:34.935Z,50.10
2023-04-11T23:40:10.733Z,50.10
2023-04-11T23:42:38.923Z,50.20
2023-04-11T23:45:07.238Z,49.80
2023-04-11T23:47:34.875Z,49.70
2023-04-11T23:50:02.877Z,50.00
2023-04-11T23:52:30.523Z,49.80
2023-04-11T23:54:58.532Z,50.10
2023-04-11T23:57:25.491Z,50.10
2023-04-11T23:59:52.470Z,50.10
